createdAt,value
2016-05-27T00:00:42.559Z,0
2016-05-27T00:01:42.577Z,0
2016-05-27T00:02:42.673Z,0
2016-05-27T00:03:42.551Z,0
2016-05-27T00:04:42.726Z,0
2016-05-27T00:05:42.759Z,0
2016-05-27T00:06:42.825Z,0
2016-05-27T00:07:42.875Z,0
2016-05-27T00:08:42.705Z,0
2016-05-27T00:09:42.942Z,0
2016-05-27T00:10:42.867Z,0
2016-05-27T00:11:42.994Z,0
2016-05-27T00:12:43.028Z,0
2016-05-27T00:13:42.968Z,0
2016-05-27T00:14:43.144Z,0
2016-05-27T00:15:43.005Z,0
2016-05-27T00:16:42.804Z,0
2016-05-27T00:17:43.338Z,0
2016-05-27T00:18:43.404Z,0
2016-05-27T00:19:43.360Z,0
2016-05-27T00:20:43.379Z,0
2016-05-27T00:21:43.427Z,0
2016-05-27T00:22:43.461Z,0
2016-05-27T00:23:43.479Z,0
2016-05-27T00:24:43.561Z,0
2016-05-27T00:25:43.595Z,0
2016-05-27T00:26:43.613Z,0
2016-05-27T00:27:43.647Z,0
2016-05-27T00:28:43.728Z,0
2016-05-27T00:29:43.620Z,0
2016-05-27T00:30:43.592Z,0
2016-05-27T00:31:43.689Z,0
2016-05-27T00:32:43.864Z,0
2016-05-27T00:33:44.069Z,0
2016-05-27T00:34:43.791Z,0
2016-05-27T00:35:43.824Z,0
2016-05-27T00:36:43.702Z,0
2016-05-27T00:37:44.049Z,0
2016-05-27T00:38:43.973Z,0
2016-05-27T00:39:44.132Z,0
2016-05-27T00:40:44.182Z,0
2016-05-27T00:41:44.060Z,0
2016-05-27T00:42:44.296Z,0
2016-05-27T00:43:44.346Z,0
2016-05-27T00:44:44.333Z,0
2016-05-27T00:45:44.367Z,0
2016-05-27T00:46:44.432Z,0
2016-05-27T00:47:44.232Z,0
2016-05-27T00:48:44.359Z,0
2016-05-27T00:49:44.550Z,0
2016-05-27T00:50:44.443Z,0
2016-05-27T00:51:44.508Z,0
2016-05-27T00:52:44.667Z,0
2016-05-27T00:53:44.732Z,0
2016-05-27T00:54:44.751Z,0
2016-05-27T00:55:44.768Z,0
2016-05-27T00:56:44.850Z,0
2016-05-27T00:57:44.712Z,0
2016-05-27T00:58:44.886Z,0
2016-05-27T00:59:44.952Z,0
2016-05-27T01:00:44.845Z,0
2016-05-27T01:01:44.863Z,0
2016-05-27T01:02:44.913Z,0
2016-05-27T01:03:44.665Z,0
2016-05-27T01:04:45.184Z,0
2016-05-27T01:05:45.217Z,0
2016-05-27T01:06:45.220Z,0
2016-05-27T01:07:45.130Z,0
2016-05-27T01:08:45.288Z,0
2016-05-27T01:09:45.369Z,0
2016-05-27T01:10:45.387Z,0
2016-05-27T01:11:45.405Z,0
2016-05-27T01:12:45.486Z,0
2016-05-27T01:13:45.474Z,0
2016-05-27T01:14:45.414Z,0
2016-05-27T01:15:45.432Z,0
2016-05-27T01:16:45.638Z,0
2016-05-27T01:17:45.500Z,0
2016-05-27T01:18:46.863Z,0
2016-05-27T01:19:45.599Z,0
2016-05-27T01:20:45.790Z,0
2016-05-27T01:21:45.667Z,0
2016-05-27T01:22:45.921Z,0
2016-05-27T01:23:45.922Z,0
2016-05-27T01:24:45.784Z,0
2016-05-27T01:25:46.021Z,0
2016-05-27T01:26:45.852Z,0
2016-05-27T01:27:46.074Z,0
2016-05-27T01:28:45.952Z,0
2016-05-27T01:29:46.189Z,0
2016-05-27T01:30:46.223Z,0
2016-05-27T01:31:46.225Z,0
2016-05-27T01:32:46.275Z,0
2016-05-27T01:33:46.465Z,0
2016-05-27T01:34:46.343Z,0
2016-05-27T01:35:46.376Z,0
2016-05-27T01:36:46.300Z,0
2016-05-27T01:37:46.492Z,0
2016-05-27T01:38:46.509Z,0
2016-05-27T01:39:46.403Z,0
2016-05-27T01:40:46.483Z,0
2016-05-27T01:41:46.502Z,0
2016-05-27T01:42:46.677Z,0
2016-05-27T01:43:46.758Z,0
2016-05-27T01:44:46.791Z,0
2016-05-27T01:45:46.794Z,0
2016-05-27T01:46:46.860Z,0
2016-05-27T01:47:46.908Z,0
2016-05-27T01:48:47.958Z,0
2016-05-27T01:49:46.932Z,0
2016-05-27T01:50:46.907Z,0
2016-05-27T01:51:47.070Z,0
2016-05-27T01:52:46.982Z,0
2016-05-27T01:53:47.192Z,0
2016-05-27T01:54:47.290Z,0
2016-05-27T01:55:47.316Z,0
2016-05-27T01:56:47.184Z,0
2016-05-27T01:57:47.397Z,0
2016-05-27T01:58:47.470Z,0
2016-05-27T01:59:47.478Z,0
2016-05-27T02:00:47.234Z,0
2016-05-27T02:01:47.646Z,0
2016-05-27T02:02:47.634Z,0
2016-05-27T02:03:47.890Z,0
2016-05-27T02:04:47.755Z,0
2016-05-27T02:05:47.617Z,0
2016-05-27T02:06:47.684Z,0
2016-05-27T02:07:47.813Z,0
2016-05-27T02:08:47.895Z,0
2016-05-27T02:09:47.975Z,0
2016-05-27T02:10:47.948Z,0
2016-05-27T02:11:47.996Z,0
2016-05-27T02:12:48.094Z,0
2016-05-27T02:13:47.988Z,0
2016-05-27T02:14:48.099Z,0
2016-05-27T02:15:48.180Z,0
2016-05-27T02:16:48.215Z,0
2016-05-27T02:17:48.233Z,0
2016-05-27T02:18:48.314Z,0
2016-05-27T02:19:48.317Z,0
2016-05-27T02:20:48.351Z,0
2016-05-27T02:21:48.071Z,0
2016-05-27T02:22:48.465Z,0
2016-05-27T02:23:47.765Z,0
2016-05-27T02:24:48.362Z,0
2016-05-27T02:25:48.379Z,0
2016-05-27T02:26:48.632Z,0
2016-05-27T02:27:48.540Z,0
2016-05-27T02:28:48.512Z,0
2016-05-27T02:29:48.718Z,0
2016-05-27T02:30:48.753Z,0
2016-05-27T02:31:48.770Z,0
2016-05-27T02:32:48.836Z,0
2016-05-27T02:33:48.619Z,0
2016-05-27T02:34:48.748Z,0
2016-05-27T02:35:48.797Z,0
2016-05-27T02:36:49.019Z,0
2016-05-27T02:37:48.896Z,0
2016-05-27T02:38:49.071Z,0
2016-05-27T02:39:48.948Z,0
2016-05-27T02:40:49.216Z,0
2016-05-27T02:41:49.094Z,0
2016-05-27T02:42:49.238Z,0
2016-05-27T02:43:49.288Z,0
2016-05-27T02:44:49.384Z,0
2016-05-27T02:45:49.371Z,0
2016-05-27T02:46:49.388Z,0
2016-05-27T02:47:49.141Z,0
2016-05-27T02:48:50.191Z,0
2016-05-27T02:49:49.350Z,0
2016-05-27T02:50:49.603Z,0
2016-05-27T02:51:49.449Z,0
2016-05-27T02:52:49.640Z,0
2016-05-27T02:53:49.674Z,0
2016-05-27T02:54:49.442Z,0
2016-05-27T02:55:49.476Z,0
2016-05-27T02:56:49.651Z,5
2016-05-27T02:57:49.856Z,5
2016-05-27T02:58:49.937Z,5
2016-05-27T02:59:49.940Z,5
2016-05-27T03:00:49.818Z,5
2016-05-27T03:01:50.024Z,5
2016-05-27T03:02:49.870Z,5
2016-05-27T03:03:50.029Z,5
2016-05-27T03:04:49.953Z,5
2016-05-27T03:05:50.237Z,5
2016-05-27T03:06:50.256Z,5
2016-05-27T03:07:50.071Z,5
2016-05-27T03:08:50.151Z,5
2016-05-27T03:09:50.404Z,5
2016-05-27T03:10:50.236Z,10
2016-05-27T03:11:50.238Z,10
2016-05-27T03:12:49.834Z,10
2016-05-27T03:13:50.321Z,10
2016-05-27T03:14:50.512Z,10
2016-05-27T03:15:50.577Z,10
2016-05-27T03:16:50.517Z,10
2016-05-27T03:17:50.644Z,10
2016-05-27T03:18:50.757Z,10
2016-05-27T03:19:50.572Z,15
2016-05-27T03:20:50.294Z,15
2016-05-27T03:21:50.811Z,15
2016-05-27T03:22:50.830Z,15
2016-05-27T03:23:50.739Z,15
2016-05-27T03:24:50.929Z,15
2016-05-27T03:25:50.963Z,15
2016-05-27T03:26:51.012Z,20
2016-05-27T03:27:50.718Z,20
2016-05-27T03:28:51.065Z,20
2016-05-27T03:29:51.130Z,20
2016-05-27T03:30:51.226Z,25
2016-05-27T03:31:51.104Z,25
2016-05-27T03:32:51.232Z,25
2016-05-27T03:33:51.156Z,25
2016-05-27T03:34:51.346Z,30
2016-05-27T03:35:51.224Z,30
2016-05-27T03:36:51.383Z,30
2016-05-27T03:37:51.464Z,30
2016-05-27T03:38:51.561Z,30
2016-05-27T03:39:51.531Z,30
2016-05-27T03:40:51.566Z,35
2016-05-27T03:41:51.475Z,35
2016-05-27T03:42:51.525Z,35
2016-05-27T03:43:51.511Z,35
2016-05-27T03:44:51.733Z,35
2016-05-27T03:45:51.767Z,35
2016-05-27T03:46:51.800Z,35
2016-05-27T03:47:51.850Z,40
2016-05-27T03:48:51.931Z,40
2016-05-27T03:49:51.949Z,40
2016-05-27T03:50:51.968Z,40
2016-05-27T03:51:52.017Z,45
2016-05-27T03:52:52.113Z,45
2016-05-27T03:53:51.804Z,50
2016-05-27T03:54:51.947Z,50
2016-05-27T03:55:52.027Z,55
2016-05-27T03:56:52.218Z,55
2016-05-27T03:57:52.252Z,60
2016-05-27T03:58:52.301Z,60
2016-05-27T03:59:52.382Z,65
2016-05-27T04:00:52.401Z,70
2016-05-27T04:01:52.418Z,70
2016-05-27T04:02:52.468Z,75
2016-05-27T04:03:53.549Z,75
2016-05-27T04:04:52.552Z,80
2016-05-27T04:05:52.414Z,80
2016-05-27T04:06:52.636Z,80
2016-05-27T04:07:52.498Z,80
2016-05-27T04:08:52.594Z,85
2016-05-27T04:09:52.565Z,85
2016-05-27T04:10:52.662Z,85
2016-05-27T04:11:52.868Z,85
2016-05-27T04:12:52.870Z,85
2016-05-27T04:13:52.748Z,90
2016-05-27T04:14:52.953Z,95
2016-05-27T04:15:52.972Z,100
2016-05-27T04:16:53.022Z,110
2016-05-27T04:17:52.916Z,110
2016-05-27T04:18:53.543Z,115
2016-05-27T04:19:53.139Z,115
2016-05-27T04:20:53.174Z,115
2016-05-27T04:21:53.254Z,110
2016-05-27T04:22:53.116Z,110
2016-05-27T04:23:53.307Z,105
2016-05-27T04:24:53.621Z,105
2016-05-27T04:25:53.422Z,100
2016-05-27T04:26:53.440Z,100
2016-05-27T04:27:53.488Z,100
2016-05-27T04:28:53.366Z,100
2016-05-27T04:29:53.619Z,100
2016-05-27T04:30:53.481Z,105
2016-05-27T04:31:53.656Z,105
2016-05-27T04:32:53.737Z,105
2016-05-27T04:33:54.536Z,115
2016-05-27T04:34:53.601Z,120
2016-05-27T04:35:53.792Z,125
2016-05-27T04:36:53.903Z,125
2016-05-27T04:37:53.797Z,135
2016-05-27T04:38:53.909Z,145
2016-05-27T04:39:53.850Z,150
2016-05-27T04:40:53.883Z,155
2016-05-27T04:41:53.948Z,160
2016-05-27T04:42:54.092Z,160
2016-05-27T04:43:54.173Z,160
2016-05-27T04:44:54.175Z,165
2016-05-27T04:45:54.194Z,170
2016-05-27T04:46:54.400Z,175
2016-05-27T04:47:54.308Z,180
2016-05-27T04:48:54.233Z,185
2016-05-27T04:49:54.376Z,185
2016-05-27T04:50:54.425Z,190
2016-05-27T04:51:54.303Z,190
2016-05-27T04:52:54.525Z,190
2016-05-27T04:53:54.371Z,190
2016-05-27T04:54:54.452Z,190
2016-05-27T04:55:54.627Z,190
2016-05-27T04:56:54.488Z,185
2016-05-27T04:57:54.554Z,180
2016-05-27T04:58:54.604Z,175
2016-05-27T04:59:54.794Z,170
2016-05-27T05:00:54.812Z,170
2016-05-27T05:01:54.893Z,170
2016-05-27T05:02:54.911Z,170
2016-05-27T05:03:54.523Z,170
2016-05-27T05:04:54.979Z,175
2016-05-27T05:05:54.887Z,180
2016-05-27T05:06:55.047Z,190
2016-05-27T05:07:54.956Z,195
2016-05-27T05:08:55.178Z,210
2016-05-27T05:09:55.117Z,210
2016-05-27T05:10:55.245Z,215
2016-05-27T05:11:55.404Z,215
2016-05-27T05:12:55.345Z,215
2016-05-27T05:13:55.379Z,220
2016-05-27T05:14:55.225Z,220
2016-05-27T05:15:55.447Z,220
2016-05-27T05:16:55.495Z,220
2016-05-27T05:17:55.498Z,215
2016-05-27T05:18:56.423Z,215
2016-05-27T05:19:56.097Z,215
2016-05-27T05:20:55.569Z,215
2016-05-27T05:21:56.180Z,215
2016-05-27T05:22:55.730Z,210
2016-05-27T05:23:55.593Z,205
2016-05-27T05:24:55.830Z,200
2016-05-27T05:25:55.707Z,205
2016-05-27T05:26:55.601Z,205
2016-05-27T05:27:56.057Z,210
2016-05-27T05:28:55.966Z,215
2016-05-27T05:29:55.328Z,220
2016-05-27T05:30:56.079Z,220
2016-05-27T05:31:56.552Z,220
2016-05-27T05:32:56.133Z,220
2016-05-27T05:33:56.338Z,220
2016-05-27T05:34:56.076Z,220
2016-05-27T05:35:56.266Z,220
2016-05-27T05:36:56.299Z,220
2016-05-27T05:37:56.396Z,215
2016-05-27T05:38:56.430Z,210
2016-05-27T05:39:56.276Z,200
2016-05-27T05:40:56.467Z,195
2016-05-27T05:41:56.547Z,195
2016-05-27T05:42:59.363Z,200
2016-05-27T05:43:56.600Z,205
2016-05-27T05:44:56.649Z,215
2016-05-27T05:45:56.761Z,215
2016-05-27T05:46:56.717Z,220
2016-05-27T05:47:56.766Z,230
2016-05-27T05:48:59.785Z,240
2016-05-27T05:49:56.850Z,250
2016-05-27T05:50:59.650Z,265
2016-05-27T05:51:59.636Z,285
2016-05-27T05:53:02.811Z,285
2016-05-27T05:54:00.844Z,290
2016-05-27T05:55:00.927Z,295
2016-05-27T05:56:00.007Z,290
2016-05-27T05:56:56.994Z,290
2016-05-27T05:58:00.090Z,290
2016-05-27T05:58:57.218Z,290
2016-05-27T05:59:57.283Z,280
2016-05-27T06:01:00.708Z,275
2016-05-27T06:01:57.352Z,270
2016-05-27T06:03:00.307Z,270
2016-05-27T06:03:57.966Z,275
2016-05-27T06:04:57.546Z,275
2016-05-27T06:05:57.456Z,280
2016-05-27T06:06:58.724Z,290
2016-05-27T06:07:57.649Z,300
2016-05-27T06:08:57.901Z,310
2016-05-27T06:10:00.232Z,315
2016-05-27T06:11:00.173Z,325
2016-05-27T06:12:00.612Z,335
2016-05-27T06:12:57.817Z,335
2016-05-27T06:13:57.728Z,330
2016-05-27T06:14:57.980Z,325
2016-05-27T06:16:00.873Z,330
2016-05-27T06:16:57.610Z,335
2016-05-27T06:17:57.864Z,340
2016-05-27T06:18:58.537Z,350
2016-05-27T06:19:57.961Z,350
2016-05-27T06:20:58.184Z,340
2016-05-27T06:21:59.217Z,325
2016-05-27T06:23:00.220Z,305
2016-05-27T06:24:02.035Z,285
2016-05-27T06:24:59.819Z,290
2016-05-27T06:25:58.447Z,285
2016-05-27T06:26:58.465Z,295
2016-05-27T06:28:00.983Z,310
2016-05-27T06:28:58.393Z,325
2016-05-27T06:29:58.552Z,325
2016-05-27T06:31:01.413Z,315
2016-05-27T06:31:58.651Z,315
2016-05-27T06:32:58.732Z,315
2016-05-27T06:33:59.093Z,320
2016-05-27T06:34:58.705Z,320
2016-05-27T06:35:58.833Z,320
2016-05-27T06:37:03.414Z,310
2016-05-27T06:38:00.948Z,310
2016-05-27T06:38:59.341Z,310
2016-05-27T06:39:59.031Z,295
2016-05-27T06:40:59.019Z,295
2016-05-27T06:41:59.037Z,305
2016-05-27T06:42:58.914Z,310
2016-05-27T06:43:58.855Z,300
2016-05-27T06:44:59.014Z,300
2016-05-27T06:45:59.297Z,300
2016-05-27T06:46:59.362Z,300
2016-05-27T06:47:59.100Z,305
2016-05-27T06:49:03.540Z,310
2016-05-27T06:49:59.292Z,315
2016-05-27T06:50:59.280Z,310
2016-05-27T06:51:59.345Z,305
2016-05-27T06:52:59.535Z,305
2016-05-27T06:53:59.772Z,310
2016-05-27T06:54:59.556Z,315
2016-05-27T06:56:00.090Z,320
2016-05-27T06:57:01.250Z,315
2016-05-27T06:57:59.799Z,315
2016-05-27T06:59:00.692Z,315
2016-05-27T06:59:59.866Z,315
2016-05-27T07:01:00.165Z,315
2016-05-27T07:02:00.200Z,320
2016-05-27T07:03:01.500Z,320
2016-05-27T07:04:00.737Z,315
2016-05-27T07:05:00.145Z,315
2016-05-27T07:06:00.086Z,320
2016-05-27T07:06:59.979Z,320
2016-05-27T07:08:00.028Z,320
2016-05-27T07:09:00.485Z,315
2016-05-27T07:09:59.987Z,310
2016-05-27T07:11:00.443Z,310
2016-05-27T07:12:00.617Z,305
2016-05-27T07:13:00.495Z,295
2016-05-27T07:14:00.764Z,295
2016-05-27T07:15:00.516Z,295
2016-05-27T07:16:01.081Z,295
2016-05-27T07:17:00.584Z,295
2016-05-27T07:18:00.602Z,300
2016-05-27T07:19:00.856Z,305
2016-05-27T07:20:01.201Z,300
2016-05-27T07:21:00.408Z,305
2016-05-27T07:22:00.800Z,305
2016-05-27T07:23:01.023Z,310
2016-05-27T07:24:00.697Z,305
2016-05-27T07:25:00.746Z,305
2016-05-27T07:26:01.139Z,305
2016-05-27T07:27:01.095Z,305
2016-05-27T07:28:01.020Z,305
2016-05-27T07:29:01.116Z,300
2016-05-27T07:30:01.010Z,300
2016-05-27T07:31:01.435Z,290
2016-05-27T07:32:01.297Z,290
2016-05-27T07:33:01.283Z,290
2016-05-27T07:34:01.863Z,290
2016-05-27T07:35:02.461Z,290
2016-05-27T07:36:02.635Z,295
2016-05-27T07:37:01.701Z,300
2016-05-27T07:38:01.750Z,305
2016-05-27T07:39:02.252Z,310
2016-05-27T07:40:01.598Z,310
2016-05-27T07:41:01.696Z,320
2016-05-27T07:42:01.651Z,325
2016-05-27T07:43:01.779Z,335
2016-05-27T07:44:02.781Z,340
2016-05-27T07:45:02.832Z,345
2016-05-27T07:46:04.442Z,350
2016-05-27T07:47:01.774Z,350
2016-05-27T07:48:01.918Z,355
2016-05-27T07:49:01.967Z,355
2016-05-27T07:50:02.860Z,360
2016-05-27T07:51:02.082Z,355
2016-05-27T07:52:02.178Z,350
2016-05-27T07:53:02.118Z,335
2016-05-27T07:54:02.183Z,315
2016-05-27T07:55:02.264Z,310
2016-05-27T07:56:02.282Z,295
2016-05-27T07:57:02.129Z,265
2016-05-27T07:58:02.335Z,260
2016-05-27T07:59:02.447Z,255
2016-05-27T08:00:02.418Z,260
2016-05-27T08:01:02.344Z,295
2016-05-27T08:02:02.518Z,320
2016-05-27T08:03:02.598Z,325
2016-05-27T08:04:02.523Z,335
2016-05-27T08:05:02.901Z,345
2016-05-27T08:06:02.716Z,345
2016-05-27T08:07:02.749Z,340
2016-05-27T08:08:02.659Z,350
2016-05-27T08:09:03.661Z,360
2016-05-27T08:10:02.915Z,395
2016-05-27T08:11:03.120Z,430
2016-05-27T08:12:03.045Z,455
2016-05-27T08:13:03.062Z,485
2016-05-27T08:14:03.051Z,510
2016-05-27T08:15:03.053Z,530
2016-05-27T08:16:03.290Z,525
2016-05-27T08:17:03.214Z,520
2016-05-27T08:18:05.498Z,495
2016-05-27T08:19:04.220Z,515
2016-05-27T08:20:02.816Z,525
2016-05-27T08:21:03.381Z,570
2016-05-27T08:22:03.400Z,590
2016-05-27T08:23:03.449Z,610
2016-05-27T08:24:03.562Z,625
2016-05-27T08:25:03.517Z,625
2016-05-27T08:26:03.394Z,610
2016-05-27T08:27:03.647Z,545
2016-05-27T08:28:04.525Z,505
2016-05-27T08:29:03.700Z,485
2016-05-27T08:30:03.671Z,460
2016-05-27T08:31:03.642Z,450
2016-05-27T08:32:03.849Z,445
2016-05-27T08:33:04.351Z,460
2016-05-27T08:34:04.322Z,490
2016-05-27T08:35:05.278Z,510
2016-05-27T08:36:04.078Z,515
2016-05-27T08:37:06.971Z,510
2016-05-27T08:38:04.396Z,505
2016-05-27T08:39:04.195Z,530
2016-05-27T08:40:04.041Z,525
2016-05-27T08:41:04.794Z,510
2016-05-27T08:42:04.360Z,505
2016-05-27T08:43:04.331Z,485
2016-05-27T08:44:04.365Z,495
2016-05-27T08:45:04.462Z,505
2016-05-27T08:46:04.542Z,500
2016-05-27T08:47:04.373Z,500
2016-05-27T08:48:04.454Z,520
2016-05-27T08:49:04.800Z,515
2016-05-27T08:50:05.084Z,515
2016-05-27T08:51:04.696Z,530
2016-05-27T08:52:04.871Z,545
2016-05-27T08:53:04.906Z,550
2016-05-27T08:54:04.611Z,560
2016-05-27T08:55:05.426Z,560
2016-05-27T08:56:04.803Z,565
2016-05-27T08:57:04.837Z,560
2016-05-27T08:58:05.028Z,570
2016-05-27T08:59:05.733Z,580
2016-05-27T09:00:04.892Z,580
2016-05-27T09:01:05.191Z,595
2016-05-27T09:02:05.851Z,620
2016-05-27T09:03:05.338Z,645
2016-05-27T09:04:06.091Z,680
2016-05-27T09:05:05.219Z,725
2016-05-27T09:06:05.393Z,730
2016-05-27T09:07:05.489Z,705
2016-05-27T09:08:05.321Z,710
2016-05-27T09:09:05.526Z,745
2016-05-27T09:10:05.560Z,775
2016-05-27T09:11:05.672Z,770
2016-05-27T09:12:05.659Z,735
2016-05-27T09:13:05.771Z,700
2016-05-27T09:14:05.742Z,680
2016-05-27T09:15:07.074Z,665
2016-05-27T09:16:05.982Z,665
2016-05-27T09:17:05.781Z,660
2016-05-27T09:18:05.815Z,660
2016-05-27T09:19:06.476Z,670
2016-05-27T09:20:06.478Z,675
2016-05-27T09:21:06.120Z,695
2016-05-27T09:22:06.170Z,710
2016-05-27T09:23:06.203Z,710
2016-05-27T09:24:06.426Z,715
2016-05-27T09:25:06.101Z,710
2016-05-27T09:26:06.634Z,715
2016-05-27T09:27:06.356Z,695
2016-05-27T09:28:07.389Z,685
2016-05-27T09:29:06.361Z,680
2016-05-27T09:30:06.505Z,670
2016-05-27T09:31:06.428Z,670
2016-05-27T09:32:06.447Z,665
2016-05-27T09:33:06.388Z,655
2016-05-27T09:34:06.593Z,635
2016-05-27T09:35:06.830Z,645
2016-05-27T09:36:06.880Z,685
2016-05-27T09:37:06.727Z,700
2016-05-27T09:38:06.744Z,705
2016-05-27T09:39:07.091Z,695
2016-05-27T09:40:07.016Z,715
2016-05-27T09:41:06.909Z,715
2016-05-27T09:42:07.130Z,710
2016-05-27T09:43:07.133Z,700
2016-05-27T09:44:07.213Z,700
2016-05-27T09:45:07.263Z,720
2016-05-27T09:46:07.532Z,755
2016-05-27T09:47:07.284Z,750
2016-05-27T09:48:07.303Z,730
2016-05-27T09:49:07.477Z,725
2016-05-27T09:50:07.339Z,760
2016-05-27T09:51:07.529Z,780
2016-05-27T09:52:07.579Z,810
2016-05-27T09:53:08.097Z,840
2016-05-27T09:54:07.740Z,880
2016-05-27T09:55:07.697Z,910
2016-05-27T09:56:07.778Z,880
2016-05-27T09:57:07.842Z,720
2016-05-27T09:58:07.861Z,590
2016-05-27T09:59:07.894Z,610
2016-05-27T10:00:07.961Z,675
2016-05-27T10:01:07.822Z,765
2016-05-27T10:02:08.106Z,785
2016-05-27T10:03:08.030Z,755
2016-05-27T10:04:08.674Z,755
2016-05-27T10:05:08.394Z,740
2016-05-27T10:06:08.242Z,740
2016-05-27T10:07:07.964Z,760
2016-05-27T10:08:08.216Z,750
2016-05-27T10:09:08.437Z,780
2016-05-27T10:10:09.237Z,815
2016-05-27T10:11:08.535Z,825
2016-05-27T10:12:08.335Z,800
2016-05-27T10:13:08.433Z,790
2016-05-27T10:14:08.451Z,760
2016-05-27T10:15:08.516Z,745
2016-05-27T10:16:08.721Z,730
2016-05-27T10:17:08.802Z,670
2016-05-27T10:18:08.837Z,615
2016-05-27T10:19:08.387Z,585
2016-05-27T10:20:08.451Z,565
2016-05-27T10:21:09.001Z,555
2016-05-27T10:22:08.690Z,570
2016-05-27T10:23:08.881Z,600
2016-05-27T10:24:09.134Z,625
2016-05-27T10:25:09.153Z,625
2016-05-27T10:26:09.076Z,605
2016-05-27T10:27:08.923Z,560
2016-05-27T10:28:12.348Z,535
2016-05-27T10:29:09.147Z,550
2016-05-27T10:30:09.369Z,510
2016-05-27T10:31:09.278Z,455
2016-05-27T10:32:09.577Z,435
2016-05-27T10:33:09.502Z,430
2016-05-27T10:34:10.317Z,440
2016-05-27T10:35:09.679Z,480
2016-05-27T10:36:09.666Z,545
2016-05-27T10:37:09.591Z,615
2016-05-27T10:38:09.593Z,650
2016-05-27T10:39:09.362Z,620
2016-05-27T10:40:09.677Z,635
2016-05-27T10:41:09.882Z,705
2016-05-27T10:42:09.964Z,930
2016-05-27T10:43:14.872Z,785
2016-05-27T10:44:09.891Z,895
2016-05-27T10:45:10.066Z,795
2016-05-27T10:46:10.115Z,660
2016-05-27T10:47:10.212Z,730
2016-05-27T10:48:13.432Z,960
2016-05-27T10:49:10.513Z,1225
2016-05-27T10:50:11.703Z,1200
2016-05-27T10:51:10.440Z,1400
2016-05-27T10:52:10.444Z,1325
2016-05-27T10:53:10.181Z,1935
2016-05-27T10:54:11.011Z,2425
2016-05-27T10:55:10.561Z,2175
2016-05-27T10:56:10.829Z,1755
2016-05-27T10:57:10.717Z,1825
2016-05-27T10:58:10.808Z,1395
2016-05-27T10:59:11.242Z,1390
2016-05-27T11:00:10.739Z,1130
2016-05-27T11:01:11.284Z,905
2016-05-27T11:02:11.186Z,815
2016-05-27T11:03:11.261Z,830
2016-05-27T11:04:10.882Z,935
2016-05-27T11:05:11.800Z,760
2016-05-27T11:06:13.734Z,575
2016-05-27T11:07:11.365Z,520
2016-05-27T11:08:11.559Z,485
2016-05-27T11:09:11.440Z,450
2016-05-27T11:10:11.524Z,425
2016-05-27T11:11:12.797Z,405
2016-05-27T11:12:11.659Z,395
2016-05-27T11:13:11.647Z,395
2016-05-27T11:14:11.697Z,395
2016-05-27T11:15:11.640Z,390
2016-05-27T11:16:12.222Z,390
2016-05-27T11:17:11.912Z,390
2016-05-27T11:18:11.744Z,395
2016-05-27T11:19:13.433Z,405
2016-05-27T11:20:12.031Z,420
2016-05-27T11:21:13.846Z,450
2016-05-27T11:22:12.006Z,480
2016-05-27T11:23:12.227Z,520
2016-05-27T11:24:11.933Z,545
2016-05-27T11:25:12.140Z,575
2016-05-27T11:26:12.394Z,600
2016-05-27T11:27:12.349Z,610
2016-05-27T11:28:12.117Z,630
2016-05-27T11:29:12.510Z,655
2016-05-27T11:30:13.310Z,665
2016-05-27T11:31:15.031Z,670
2016-05-27T11:32:12.424Z,660
2016-05-27T11:33:12.521Z,660
2016-05-27T11:34:13.007Z,670
2016-05-27T11:35:12.589Z,685
2016-05-27T11:36:13.138Z,670
2016-05-27T11:37:12.703Z,670
2016-05-27T11:38:12.879Z,680
2016-05-27T11:39:12.756Z,700
2016-05-27T11:40:13.009Z,720
2016-05-27T11:41:13.480Z,735
2016-05-27T11:42:12.795Z,755
2016-05-27T11:43:12.814Z,760
2016-05-27T11:44:13.192Z,775
2016-05-27T11:45:13.256Z,770
2016-05-27T11:46:13.165Z,735
2016-05-27T11:47:13.184Z,715
2016-05-27T11:48:13.420Z,705
2016-05-27T11:49:13.486Z,695
2016-05-27T11:50:13.301Z,670
2016-05-27T11:51:17.850Z,660
2016-05-27T11:52:13.542Z,650
2016-05-27T11:53:13.450Z,650
2016-05-27T11:54:13.546Z,645
2016-05-27T11:55:13.721Z,650
2016-05-27T11:56:14.536Z,655
2016-05-27T11:57:13.835Z,665
2016-05-27T11:58:13.869Z,675
2016-05-27T11:59:13.903Z,685
2016-05-27T12:00:15.327Z,705
2016-05-27T12:01:14.284Z,725
2016-05-27T12:02:13.880Z,720
2016-05-27T12:03:14.102Z,720
2016-05-27T12:04:14.510Z,735
2016-05-27T12:05:15.623Z,730
2016-05-27T12:06:14.110Z,715
2016-05-27T12:07:14.175Z,700
2016-05-27T12:08:14.193Z,690
2016-05-27T12:09:14.290Z,685
2016-05-27T12:10:14.417Z,680
2016-05-27T12:11:16.015Z,675
2016-05-27T12:12:14.595Z,670
2016-05-27T12:13:14.582Z,675
2016-05-27T12:14:14.615Z,680
2016-05-27T12:15:14.696Z,695
2016-05-27T12:16:17.871Z,725
2016-05-27T12:17:14.764Z,765
2016-05-27T12:18:14.861Z,825
2016-05-27T12:19:14.956Z,905
2016-05-27T12:20:15.257Z,1015
2016-05-27T12:21:14.962Z,1265
2016-05-27T12:22:15.043Z,1450
2016-05-27T12:23:15.078Z,1375
2016-05-27T12:24:15.095Z,1500
2016-05-27T12:25:15.552Z,1345
2016-05-27T12:26:15.258Z,1410
2016-05-27T12:27:15.275Z,1435
2016-05-27T12:28:15.013Z,1315
2016-05-27T12:29:15.343Z,1100
2016-05-27T12:30:15.111Z,1075
2016-05-27T12:31:15.286Z,1150
2016-05-27T12:32:15.554Z,1225
2016-05-27T12:33:15.588Z,1235
2016-05-27T12:34:16.294Z,1045
2016-05-27T12:35:16.829Z,920
2016-05-27T12:36:15.660Z,805
2016-05-27T12:37:15.630Z,780
2016-05-27T12:38:15.837Z,745
2016-05-27T12:39:15.699Z,735
2016-05-27T12:40:15.779Z,725
2016-05-27T12:41:16.173Z,695
2016-05-27T12:42:15.863Z,665
2016-05-27T12:43:16.303Z,630
2016-05-27T12:44:18.868Z,620
2016-05-27T12:45:16.167Z,630
2016-05-27T12:46:16.264Z,640
2016-05-27T12:47:16.267Z,635
2016-05-27T12:48:16.348Z,610
2016-05-27T12:49:17.788Z,580
2016-05-27T12:50:16.431Z,550
2016-05-27T12:51:16.747Z,545
2016-05-27T12:52:16.546Z,560
2016-05-27T12:53:16.611Z,555
2016-05-27T12:54:16.973Z,540
2016-05-27T12:55:16.647Z,515
2016-05-27T12:56:16.728Z,470
2016-05-27T12:57:16.825Z,435
2016-05-27T12:58:16.797Z,385
2016-05-27T12:59:16.705Z,350
2016-05-27T13:00:16.942Z,325
2016-05-27T13:01:16.992Z,315
2016-05-27T13:02:18.323Z,320
2016-05-27T13:03:17.075Z,340
2016-05-27T13:04:20.577Z,365
2016-05-27T13:05:17.972Z,390
2016-05-27T13:06:17.052Z,440
2016-05-27T13:07:17.227Z,475
2016-05-27T13:08:17.636Z,470
2016-05-27T13:09:17.170Z,435
2016-05-27T13:10:17.188Z,380
2016-05-27T13:11:17.347Z,350
2016-05-27T13:12:17.491Z,325
2016-05-27T13:13:17.540Z,310
2016-05-27T13:14:17.590Z,300
2016-05-27T13:15:17.624Z,290
2016-05-27T13:16:17.673Z,280
2016-05-27T13:17:17.723Z,275
2016-05-27T13:18:17.787Z,265
2016-05-27T13:19:19.400Z,260
2016-05-27T13:20:18.090Z,255
2016-05-27T13:21:17.937Z,260
2016-05-27T13:22:18.111Z,270
2016-05-27T13:23:18.020Z,285
2016-05-27T13:24:18.053Z,315
2016-05-27T13:25:18.166Z,335
2016-05-27T13:26:18.184Z,345
2016-05-27T13:27:18.219Z,345
2016-05-27T13:28:17.924Z,350
2016-05-27T13:29:18.005Z,355
2016-05-27T13:30:18.336Z,355
2016-05-27T13:31:18.369Z,330
2016-05-27T13:32:18.450Z,310
2016-05-27T13:33:18.328Z,295
2016-05-27T13:34:18.316Z,290
2016-05-27T13:35:18.475Z,300
2016-05-27T13:36:18.664Z,310
2016-05-27T13:37:18.652Z,325
2016-05-27T13:38:18.685Z,335
2016-05-27T13:39:18.766Z,345
2016-05-27T13:40:18.815Z,350
2016-05-27T13:41:18.866Z,345
2016-05-27T13:42:18.899Z,335
2016-05-27T13:43:18.949Z,320
2016-05-27T13:44:18.982Z,305
2016-05-27T13:45:19.032Z,285
2016-05-27T13:46:19.081Z,270
2016-05-27T13:47:19.193Z,265
2016-05-27T13:48:19.150Z,260
2016-05-27T13:49:20.199Z,260
2016-05-27T13:50:19.109Z,265
2016-05-27T13:51:19.329Z,280
2016-05-27T13:52:19.364Z,285
2016-05-27T13:53:19.459Z,295
2016-05-27T13:54:19.150Z,300
2016-05-27T13:55:19.481Z,305
2016-05-27T13:56:19.561Z,320
2016-05-27T13:57:19.612Z,335
2016-05-27T13:58:19.645Z,355
2016-05-27T13:59:19.555Z,365
2016-05-27T14:00:19.729Z,370
2016-05-27T14:01:19.778Z,365